Time;durP1;ratioP1;P1;durP2;ratioP2;P2;SDS_P1;SDS_P2;PMS_P1;PMS_P2;Temp;Humidity;BMP_temperature;BMP_pressure;BME280_temperature;BME280_humidity;BME280_pressure;Samples;Min_cycle;Max_cycle;Signal;HPM_P1;HPM_P2
2022/10/24 00:00:43;;;;;;;5.13;1.33;;;;;;;13.56;nan;93743.69;4933075;29;20048;-62
2022/10/24 00:03:12;;;;;;;7.18;1.42;;;;;;;13.61;nan;93748.69;4933450;29;20056;-62
2022/10/24 00:05:44;;;;;;;7.05;1.50;;;;;;;13.63;nan;93751.00;4932970;29;20040;-62
2022/10/24 00:08:11;;;;;;;6.30;1.50;;;;;;;13.58;nan;93755.84;4916228;29;20043;-62
2022/10/24 00:10:44;;;;;;;7.25;1.48;;;;;;;13.52;nan;93749.34;4932962;29;20094;-63
2022/10/24 00:13:12;;;;;;;6.30;1.35;;;;;;;13.47;nan;93740.84;4933496;29;20050;-61
2022/10/24 00:15:43;;;;;;;6.20;1.52;;;;;;;13.40;nan;93755.59;4932751;29;20050;-61
2022/10/24 00:18:10;;;;;;;5.15;1.40;;;;;;;13.41;nan;93753.63;4933397;29;20054;-62
2022/10/24 00:20:38;;;;;;;5.97;1.27;;;;;;;13.37;nan;93751.72;4932975;29;20070;-62
2022/10/24 00:23:05;;;;;;;7.03;1.30;;;;;;;13.41;nan;93748.09;4932461;29;20055;-62
2022/10/24 00:25:32;;;;;;;6.05;1.67;;;;;;;13.42;nan;93760.66;4932963;29;20051;-62
2022/10/24 00:27:58;;;;;;;7.72;1.60;;;;;;;13.43;nan;93773.25;4933277;29;20043;-62
2022/10/24 00:30:26;;;;;;;6.43;1.40;;;;;;;13.51;nan;93775.34;4915661;29;20044;-62
2022/10/24 00:32:52;;;;;;;8.10;1.40;;;;;;;13.53;nan;93775.69;4933366;29;20519;-62
2022/10/24 00:35:19;;;;;;;6.65;1.60;;;;;;;13.55;nan;93769.75;4932501;29;20051;-62
2022/10/24 00:37:46;;;;;;;7.00;1.45;;;;;;;13.58;nan;93746.78;4933385;29;20039;-61
2022/10/24 00:40:16;;;;;;;5.03;1.40;;;;;;;13.64;nan;93764.34;4933440;29;20048;-62
2022/10/24 00:42:43;;;;;;;6.32;1.60;;;;;;;13.57;nan;93772.84;4932236;29;20391;-61
2022/10/24 00:45:41;;;;;;;5.77;1.30;;;;;;;13.48;nan;93762.47;4932992;29;20059;-65
2022/10/24 00:48:19;;;;;;;4.55;1.23;;;;;;;13.39;nan;93765.84;4932204;29;20411;-61
2022/10/24 00:50:49;;;;;;;6.70;1.70;;;;;;;13.42;nan;93777.19;4932385;29;20842;-62
2022/10/24 00:53:17;;;;;;;7.20;1.40;;;;;;;13.46;nan;93786.16;4932152;29;20044;-62
2022/10/24 00:55:48;;;;;;;6.15;1.50;;;;;;;13.46;nan;93800.72;4916169;29;20102;-63
2022/10/24 00:58:18;;;;;;;6.20;1.47;;;;;;;13.39;nan;93795.41;4932066;29;20039;-62
2022/10/24 01:00:45;;;;;;;5.95;1.50;;;;;;;13.34;nan;93799.47;4932608;29;20052;-62
2022/10/24 01:03:12;;;;;;;8.32;1.55;;;;;;;13.19;nan;93801.78;4932970;29;20058;-62
2022/10/24 01:05:56;;;;;;;6.72;1.52;;;;;;;13.18;nan;93810.53;4915183;29;20040;-62
2022/10/24 01:08:34;;;;;;;5.63;1.52;;;;;;;13.08;nan;93809.59;4915204;29;20054;-62
2022/10/24 01:11:04;;;;;;;5.17;1.50;;;;;;;13.06;nan;93808.47;4932835;29;20058;-62
2022/10/24 01:13:33;;;;;;;7.65;1.60;;;;;;;13.03;nan;93804.59;4932563;29;20052;-62
2022/10/24 01:16:25;;;;;;;8.57;2.00;;;;;;;13.06;nan;93792.72;4932852;29;20427;-63
2022/10/24 01:19:26;;;;;;;7.22;1.60;;;;;;;12.99;nan;93784.63;4922881;29;20443;-62
2022/10/24 01:21:57;;;;;;;5.88;1.77;;;;;;;13.01;nan;93792.47;4932093;29;20686;-62
2022/10/24 01:24:37;;;;;;;6.27;1.50;;;;;;;12.98;nan;93785.84;4915201;29;20074;-62
2022/10/24 01:27:30;;;;;;;7.22;1.58;;;;;;;12.93;nan;93797.38;4932872;29;20058;-63
2022/10/24 01:30:08;;;;;;;9.60;1.85;;;;;;;12.95;nan;93792.22;4931855;29;20718;-63
2022/10/24 01:33:05;;;;;;;7.80;1.90;;;;;;;12.94;nan;93804.47;4931988;29;20066;-62
2022/10/24 01:35:42;;;;;;;6.32;1.85;;;;;;;12.93;nan;93791.88;4928233;29;20067;-62
2022/10/24 01:38:34;;;;;;;9.33;1.90;;;;;;;12.93;nan;93781.63;4936183;29;20040;-62
2022/10/24 01:41:12;;;;;;;7.63;1.98;;;;;;;13.01;nan;93781.44;4935065;29;20832;-62
2022/10/24 01:43:43;;;;;;;9.93;1.77;;;;;;;13.04;nan;93784.13;4935961;29;20046;-62
2022/10/24 01:46:15;;;;;;;5.93;1.70;;;;;;;13.03;nan;93782.56;4935937;29;20052;-62
2022/10/24 01:48:46;;;;;;;27.00;10.27;;;;;;;13.05;nan;93777.38;4935255;29;20752;-62
2022/10/24 01:51:16;;;;;;;6.70;2.10;;;;;;;13.03;nan;93779.81;4935948;29;20059;-62
2022/10/24 01:53:45;;;;;;;7.70;1.80;;;;;;;12.98;nan;93775.59;4934659;29;20066;-62
2022/10/24 01:56:12;;;;;;;7.80;1.67;;;;;;;12.98;nan;93775.59;4935931;29;20401;-61
2022/10/24 01:58:38;;;;;;;11.93;2.53;;;;;;;13.02;nan;93759.00;4935330;29;20048;-61
2022/10/24 02:01:11;;;;;;;6.88;1.98;;;;;;;12.98;nan;93778.38;4918832;29;20087;-62
2022/10/24 02:03:44;;;;;;;7.93;1.87;;;;;;;12.93;nan;93791.88;4935690;29;20039;-62
2022/10/24 02:06:18;;;;;;;10.57;2.10;;;;;;;12.90;nan;93785.28;4935753;29;20051;-62
2022/10/24 02:08:50;;;;;;;6.35;1.85;;;;;;;12.84;nan;93769.69;4934817;29;20425;-63
2022/10/24 02:11:17;;;;;;;7.47;2.03;;;;;;;12.82;nan;93775.66;4935289;29;20059;-62
2022/10/24 02:13:48;;;;;;;6.45;1.73;;;;;;;12.82;nan;93770.13;4935876;29;20039;-63
2022/10/24 02:16:18;;;;;;;8.43;1.80;;;;;;;12.79;nan;93771.75;4917894;29;20051;-62
2022/10/24 02:18:48;;;;;;;7.55;2.40;;;;;;;12.85;nan;93782.25;4935514;29;20047;-62
2022/10/24 02:21:26;;;;;;;7.15;2.30;;;;;;;12.85;nan;93771.25;4935326;29;20040;-61
2022/10/24 02:24:01;;;;;;;7.60;2.13;;;;;;;12.84;nan;93766.94;4934529;29;21645;-62
2022/10/24 02:26:36;;;;;;;7.53;2.40;;;;;;;12.76;nan;93764.38;4934661;29;20058;-62
2022/10/24 02:29:12;;;;;;;10.43;1.97;;;;;;;12.76;nan;93769.88;4935472;29;20048;-62
2022/10/24 02:31:47;;;;;;;9.05;2.55;;;;;;;12.74;nan;93772.31;4934782;29;20238;-62
2022/10/24 02:34:17;;;;;;;7.55;2.15;;;;;;;12.72;nan;93776.69;4935560;29;20047;-62
2022/10/24 02:36:46;;;;;;;12.43;2.13;;;;;;;12.75;nan;93757.31;4934441;29;20036;-61
2022/10/24 02:39:15;;;;;;;7.88;2.25;;;;;;;12.80;nan;93761.53;4934851;29;20058;-62
2022/10/24 02:41:44;;;;;;;12.87;2.23;;;;;;;12.80;nan;93758.78;4933994;29;20812;-62
2022/10/24 02:44:14;;;;;;;6.63;1.98;;;;;;;12.81;nan;93756.81;4934984;29;20078;-62
2022/10/24 02:46:42;;;;;;;12.57;2.47;;;;;;;12.83;nan;93760.66;4933894;29;20328;-62
2022/10/24 02:49:09;;;;;;;9.35;2.55;;;;;;;12.84;nan;93776.00;4934876;29;20055;-63
2022/10/24 02:51:40;;;;;;;8.75;2.67;;;;;;;12.85;nan;93782.25;4917299;29;20527;-62
2022/10/24 02:54:06;;;;;;;6.17;1.97;;;;;;;12.83;nan;93773.66;4934822;29;20040;-62
2022/10/24 02:56:35;;;;;;;8.10;1.90;;;;;;;12.82;nan;93778.41;4934206;29;20043;-62
2022/10/24 02:59:02;;;;;;;10.82;2.45;;;;;;;12.83;nan;93768.16;4934541;29;20058;-62
2022/10/24 03:01:29;;;;;;;10.35;2.33;;;;;;;12.85;nan;93774.75;4934207;29;20055;-63
2022/10/24 03:03:56;;;;;;;11.70;3.40;;;;;;;12.84;nan;93775.19;4917824;29;20051;-62
2022/10/24 03:06:23;;;;;;;10.90;2.30;;;;;;;12.77;nan;93778.91;4934074;29;20048;-61
2022/10/24 03:08:50;;;;;;;8.13;2.30;;;;;;;12.78;nan;93763.97;4917633;29;20452;-62
2022/10/24 03:11:17;;;;;;;7.88;2.35;;;;;;;12.77;nan;93748.63;4934148;29;20048;-62
2022/10/24 03:13:44;;;;;;;8.65;2.10;;;;;;;12.78;nan;93744.69;4934344;29;20400;-62
2022/10/24 03:16:10;;;;;;;8.60;2.53;;;;;;;12.77;nan;93732.09;4934130;29;20122;-62
2022/10/24 03:18:39;;;;;;;8.17;1.97;;;;;;;12.70;nan;93741.34;4934096;29;20039;-63
2022/10/24 03:21:06;;;;;;;9.35;2.10;;;;;;;12.69;nan;93736.25;4934090;29;20043;-62
2022/10/24 03:23:33;;;;;;;8.90;2.40;;;;;;;12.72;nan;93738.16;4933359;29;20047;-62
2022/10/24 03:26:00;;;;;;;10.25;2.30;;;;;;;12.73;nan;93739.69;4933948;29;20046;-62
2022/10/24 03:28:27;;;;;;;9.75;2.30;;;;;;;12.71;nan;93756.63;4933415;29;20073;-63
2022/10/24 03:30:55;;;;;;;7.20;2.03;;;;;;;12.65;nan;93757.59;4934088;29;20040;-62
2022/10/24 03:33:22;;;;;;;8.13;2.10;;;;;;;12.65;nan;93758.38;4933499;29;20058;-61
2022/10/24 03:35:52;;;;;;;7.78;2.30;;;;;;;12.62;nan;93767.50;4933882;29;20059;-62
2022/10/24 03:38:20;;;;;;;8.05;2.50;;;;;;;12.62;nan;93783.25;4933390;29;20054;-63
2022/10/24 03:40:48;;;;;;;7.07;2.10;;;;;;;12.62;nan;93789.53;4916802;29;20039;-63
2022/10/24 03:43:16;;;;;;;8.30;1.93;;;;;;;12.55;nan;93784.19;4933626;29;20051;-62
2022/10/24 03:45:43;;;;;;;8.00;2.20;;;;;;;12.50;nan;93781.97;4933613;29;20066;-62
2022/10/24 03:48:11;;;;;;;14.45;2.85;;;;;;;12.48;nan;93785.16;4934050;29;20052;-61
2022/10/24 03:50:37;;;;;;;10.82;2.50;;;;;;;12.49;nan;93794.19;4933252;29;20054;-61
2022/10/24 03:53:04;;;;;;;9.35;2.30;;;;;;;12.46;nan;93795.06;4916464;29;20048;-62
2022/10/24 03:55:32;;;;;;;8.93;2.37;;;;;;;12.42;nan;93797.88;4933173;29;20043;-62
2022/10/24 03:57:58;;;;;;;6.22;2.13;;;;;;;12.36;nan;93799.59;4933686;29;20046;-62
2022/10/24 04:00:27;;;;;;;11.60;2.50;;;;;;;12.32;nan;93794.19;4933149;29;20046;-62
2022/10/24 04:02:55;;;;;;;7.95;2.38;;;;;;;12.33;nan;93792.19;4933493;29;20392;-63
2022/10/24 04:05:22;;;;;;;7.68;2.10;;;;;;;12.34;nan;93802.78;4932787;29;20047;-63
2022/10/24 04:07:49;;;;;;;11.30;2.30;;;;;;;12.29;nan;93808.00;4933231;29;20040;-61
2022/10/24 04:10:16;;;;;;;8.30;2.33;;;;;;;12.27;nan;93808.44;4932912;29;20050;-62
2022/10/24 04:12:42;;;;;;;7.13;2.45;;;;;;;12.24;nan;93795.56;4916195;29;20043;-61
2022/10/24 04:15:09;;;;;;;9.60;2.30;;;;;;;12.23;nan;93805.00;4933481;29;20047;-62
2022/10/24 04:17:36;;;;;;;8.25;1.67;;;;;;;12.24;nan;93794.78;4932919;29;20053;-62
2022/10/24 04:20:04;;;;;;;5.50;1.90;;;;;;;12.34;nan;93810.28;4933230;29;20412;-62
2022/10/24 04:22:30;;;;;;;5.20;1.95;;;;;;;12.36;nan;93808.63;4932599;29;20047;-61
2022/10/24 04:24:59;;;;;;;9.95;2.33;;;;;;;12.36;nan;93811.38;4932788;29;20039;-61
2022/10/24 04:27:26;;;;;;;8.02;2.00;;;;;;;12.38;nan;93822.72;4932628;29;20058;-62
2022/10/24 04:29:53;;;;;;;7.43;2.30;;;;;;;12.36;nan;93816.88;4933211;29;20051;-62
2022/10/24 04:32:20;;;;;;;6.23;1.80;;;;;;;12.30;nan;93818.59;4915518;29;20052;-62
2022/10/24 04:34:47;;;;;;;9.68;2.08;;;;;;;12.28;nan;93818.25;4932975;29;20036;-62
2022/10/24 04:37:13;;;;;;;6.93;1.90;;;;;;;12.32;nan;93807.94;4933115;29;20043;-62
2022/10/24 04:39:40;;;;;;;6.57;1.98;;;;;;;12.36;nan;93805.88;4932016;29;20402;-61
2022/10/24 04:42:07;;;;;;;7.45;1.92;;;;;;;12.43;nan;93785.66;4933166;29;20058;-61
2022/10/24 04:44:34;;;;;;;8.67;2.00;;;;;;;12.44;nan;93781.72;4932302;29;20662;-62
2022/10/24 04:47:00;;;;;;;6.57;2.10;;;;;;;12.50;nan;93784.72;4933050;29;20044;-62
2022/10/24 04:49:27;;;;;;;6.78;1.85;;;;;;;12.53;nan;93779.09;4932651;29;20058;-61
2022/10/24 04:51:54;;;;;;;9.05;2.08;;;;;;;12.52;nan;93780.31;4932713;29;20046;-62
2022/10/24 04:54:21;;;;;;;8.73;2.30;;;;;;;12.48;nan;93778.88;4932236;29;20051;-61
2022/10/24 04:56:48;;;;;;;8.50;2.33;;;;;;;12.51;nan;93780.75;4932902;29;20047;-62
2022/10/24 04:59:14;;;;;;;5.93;1.83;;;;;;;12.48;nan;93767.88;4932821;29;20070;-63
2022/10/24 05:01:41;;;;;;;9.10;2.30;;;;;;;12.51;nan;93759.50;4931812;29;20691;-62
2022/10/24 05:04:08;;;;;;;7.05;1.90;;;;;;;12.38;nan;93773.19;4932779;29;20501;-63
2022/10/24 05:06:35;;;;;;;8.60;2.55;;;;;;;12.48;nan;93776.13;4932394;29;20165;-61
2022/10/24 05:09:03;;;;;;;6.90;2.07;;;;;;;12.50;nan;93787.47;4934499;29;20051;-61
2022/10/24 05:11:31;;;;;;;8.95;2.40;;;;;;;12.52;nan;93779.56;4935981;29;20050;-62
2022/10/24 05:13:58;;;;;;;6.32;1.70;;;;;;;12.61;nan;93765.94;4936500;29;20405;-62
2022/10/24 05:16:24;;;;;;;11.18;3.28;;;;;;;12.71;nan;93753.88;4935628;29;20058;-63
2022/10/24 05:18:51;;;;;;;10.73;5.03;;;;;;;12.73;nan;93756.97;4936328;29;20052;-63
2022/10/24 05:21:18;;;;;;;10.10;2.80;;;;;;;12.79;nan;93755.25;4935614;29;20052;-63
2022/10/24 05:23:45;;;;;;;7.47;3.78;;;;;;;12.77;nan;93751.38;4936082;29;20535;-62
2022/10/24 05:26:11;;;;;;;9.85;4.32;;;;;;;12.76;nan;93742.34;4919253;29;20062;-62
2022/10/24 05:28:38;;;;;;;4.93;1.63;;;;;;;12.71;nan;93736.59;4935889;29;20528;-63
2022/10/24 05:31:05;;;;;;;9.48;3.85;;;;;;;12.66;nan;93731.63;4935994;29;20078;-63
2022/10/24 05:33:32;;;;;;;23.03;12.67;;;;;;;12.67;nan;93727.66;4935776;29;20056;-63
2022/10/24 05:35:58;;;;;;;9.85;5.38;;;;;;;12.61;nan;93718.38;4936443;29;20051;-64
2022/10/24 05:38:25;;;;;;;9.00;4.45;;;;;;;12.65;nan;93705.28;4935459;29;20059;-62
2022/10/24 05:40:52;;;;;;;8.98;2.92;;;;;;;12.67;nan;93714.66;4918908;29;20048;-63
2022/10/24 05:43:19;;;;;;;6.43;2.00;;;;;;;12.68;nan;93729.97;4935615;29;20508;-64
2022/10/24 05:45:47;;;;;;;9.10;2.60;;;;;;;12.52;nan;93732.78;4935473;29;20378;-63
2022/10/24 05:48:19;;;;;;;7.85;1.70;;;;;;;12.41;nan;93722.00;4935615;29;20044;-62
2022/10/24 05:50:46;;;;;;;5.80;1.88;;;;;;;12.50;nan;93735.94;4919006;29;20167;-63
2022/10/24 05:53:13;;;;;;;7.95;1.88;;;;;;;12.45;nan;93739.22;4935216;29;20058;-62
2022/10/24 05:55:39;;;;;;;8.60;2.42;;;;;;;12.51;nan;93740.22;4935535;29;20044;-63
2022/10/24 05:58:06;;;;;;;7.60;2.10;;;;;;;12.49;nan;93741.88;4918731;29;20051;-62
2022/10/24 06:00:33;;;;;;;8.30;2.05;;;;;;;12.53;nan;93740.56;4935000;29;20062;-62
2022/10/24 06:03:00;;;;;;;9.02;2.38;;;;;;;12.59;nan;93740.81;4935783;29;20055;-62
2022/10/24 06:05:27;;;;;;;7.97;2.30;;;;;;;12.59;nan;93740.81;4934832;29;20054;-64
2022/10/24 06:07:54;;;;;;;8.55;2.25;;;;;;;12.56;nan;93745.22;4935401;29;20039;-63
2022/10/24 06:10:21;;;;;;;5.73;1.93;;;;;;;12.54;nan;93757.88;4918332;29;20054;-63
2022/10/24 06:12:47;;;;;;;9.00;2.42;;;;;;;12.57;nan;93765.25;4922406;29;20039;-62
2022/10/24 06:15:14;;;;;;;5.57;2.08;;;;;;;12.52;nan;93765.81;4918325;29;20493;-62
2022/10/24 06:17:41;;;;;;;8.25;2.30;;;;;;;12.43;nan;93771.13;4934213;29;20863;-63
2022/10/24 06:20:09;;;;;;;8.63;2.20;;;;;;;12.39;nan;93777.50;4934870;29;20058;-63
2022/10/24 06:22:36;;;;;;;7.10;2.40;;;;;;;12.33;nan;93784.72;4934709;29;20519;-62
2022/10/24 06:25:03;;;;;;;7.32;2.55;;;;;;;12.27;nan;93788.41;4935480;29;20065;-64
2022/10/24 06:27:30;;;;;;;8.43;2.72;;;;;;;12.20;nan;93781.09;4934627;29;20095;-62
2022/10/24 06:29:57;;;;;;;7.70;2.63;;;;;;;12.14;nan;93775.34;4935171;29;20050;-62
2022/10/24 06:32:23;;;;;;;8.68;4.47;;;;;;;12.15;nan;93776.91;4934566;29;20058;-62
2022/10/24 06:34:50;;;;;;;12.27;4.30;;;;;;;12.16;nan;93781.19;4934830;29;20094;-62
2022/10/24 06:37:17;;;;;;;9.77;4.30;;;;;;;12.13;nan;93778.50;4934743;29;20056;-62
2022/10/24 06:39:44;;;;;;;16.45;9.43;;;;;;;12.10;nan;93782.91;4934729;29;20046;-63
2022/10/24 06:42:11;;;;;;;12.20;5.65;;;;;;;12.11;nan;93765.22;4934800;29;20051;-63
2022/10/24 06:44:37;;;;;;;10.98;4.10;;;;;;;12.19;nan;93776.78;4933853;29;20048;-62
2022/10/24 06:47:05;;;;;;;13.10;4.60;;;;;;;12.12;nan;93779.72;4934781;29;20511;-63
2022/10/24 06:49:32;;;;;;;9.27;4.68;;;;;;;12.14;nan;93775.34;4934210;29;20044;-64
2022/10/24 06:51:59;;;;;;;10.15;2.88;;;;;;;12.14;nan;93780.84;4934520;29;20046;-63
2022/10/24 06:54:26;;;;;;;8.63;2.03;;;;;;;12.11;nan;93776.22;4933654;29;20058;-63
2022/10/24 06:56:55;;;;;;;5.38;2.13;;;;;;;12.09;nan;93777.81;4934726;29;20044;-63
2022/10/24 06:59:22;;;;;;;7.50;2.20;;;;;;;12.13;nan;93781.25;4933917;29;20046;-63
2022/10/24 07:01:49;;;;;;;6.93;2.47;;;;;;;12.13;nan;93789.50;4934284;29;20046;-63
2022/10/24 07:04:16;;;;;;;6.88;2.97;;;;;;;12.14;nan;93797.34;4934238;29;20052;-62
2022/10/24 07:06:43;;;;;;;10.68;3.00;;;;;;;12.22;nan;93808.97;4934151;29;20044;-62
2022/10/24 07:09:11;;;;;;;9.43;3.40;;;;;;;12.19;nan;93827.13;4938452;29;20043;-63
2022/10/24 07:11:40;;;;;;;7.70;2.83;;;;;;;12.22;nan;93830.22;4941979;28;21614;-62
2022/10/24 07:14:08;;;;;;;8.57;2.90;;;;;;;12.18;nan;93833.03;4934304;29;20059;-63
2022/10/24 07:16:36;;;;;;;7.35;2.50;;;;;;;12.19;nan;93826.31;4933547;29;20039;-63
2022/10/24 07:19:04;;;;;;;7.80;2.30;;;;;;;12.22;nan;93822.72;4934432;29;20046;-63
2022/10/24 07:21:32;;;;;;;7.70;2.42;;;;;;;12.27;nan;93818.69;4916506;29;20054;-63
2022/10/24 07:24:00;;;;;;;5.30;2.00;;;;;;;12.30;nan;93823.34;4933927;29;20039;-63
2022/10/24 07:26:28;;;;;;;8.60;2.83;;;;;;;12.30;nan;93824.09;4933614;29;20044;-62
2022/10/24 07:28:59;;;;;;;9.70;3.20;;;;;;;12.27;nan;93822.19;4933975;29;20046;-64
2022/10/24 07:31:32;;;;;;;6.18;2.40;;;;;;;12.36;nan;93830.63;4938501;28;20053;-62
2022/10/24 07:34:05;;;;;;;5.32;2.10;;;;;;;12.26;nan;93826.16;4943613;28;20044;-64
2022/10/24 07:36:32;;;;;;;7.63;2.50;;;;;;;12.25;nan;93821.84;4933186;29;20054;-61
2022/10/24 07:38:59;;;;;;;6.47;2.22;;;;;;;12.42;nan;93819.91;4933839;29;20716;-63
2022/10/24 07:41:29;;;;;;;8.00;2.53;;;;;;;12.54;nan;93821.19;4933372;29;20040;-63
2022/10/24 07:44:01;;;;;;;7.82;1.90;;;;;;;12.50;nan;93821.28;4916860;29;20048;-64
2022/10/24 07:46:28;;;;;;;5.03;1.90;;;;;;;12.62;nan;93819.81;4932921;29;20063;-63
2022/10/24 07:48:55;;;;;;;8.47;1.70;;;;;;;12.56;nan;93805.03;4933780;29;20055;-64
2022/10/24 07:51:22;;;;;;;5.43;1.88;;;;;;;12.54;nan;93791.69;4933021;29;20050;-64
2022/10/24 07:53:49;;;;;;;6.88;1.60;;;;;;;12.60;nan;93758.91;4933048;29;20044;-63
2022/10/24 07:56:16;;;;;;;7.35;1.60;;;;;;;12.58;nan;93773.09;4933320;29;20059;-64
2022/10/24 07:58:45;;;;;;;11.52;2.05;;;;;;;12.62;nan;93788.75;4933463;29;20044;-63
2022/10/24 08:01:18;;;;;;;8.07;2.03;;;;;;;12.67;nan;93789.00;4933244;29;20052;-63
2022/10/24 08:03:46;;;;;;;6.07;1.88;;;;;;;12.68;nan;93795.28;4932742;29;20504;-63
2022/10/24 08:06:16;;;;;;;6.60;2.08;;;;;;;12.68;nan;93798.03;4933384;29;20055;-63
2022/10/24 08:08:43;;;;;;;5.57;1.83;;;;;;;12.51;nan;93798.03;4932940;29;20830;-64
2022/10/24 08:11:20;;;;;;;6.00;1.77;;;;;;;12.43;nan;93801.41;4946106;28;20048;-63
2022/10/24 08:13:47;;;;;;;6.87;1.70;;;;;;;12.37;nan;93812.94;4931969;29;20874;-64
2022/10/24 08:16:15;;;;;;;5.47;2.00;;;;;;;12.34;nan;93827.53;4933204;29;20055;-64
2022/10/24 08:18:42;;;;;;;7.35;2.05;;;;;;;12.37;nan;93828.66;4932651;29;20638;-66
2022/10/24 08:21:12;;;;;;;6.60;1.90;;;;;;;12.33;nan;93822.47;4948004;28;20400;-64
2022/10/24 08:23:42;;;;;;;7.20;2.08;;;;;;;12.25;nan;93816.34;4935019;28;20036;-66
2022/10/24 08:26:12;;;;;;;6.43;1.87;;;;;;;12.28;nan;93831.25;4932209;29;20048;-65
2022/10/24 08:28:40;;;;;;;6.65;2.10;;;;;;;12.33;nan;93845.25;4932391;29;20050;-65
2022/10/24 08:31:10;;;;;;;6.90;2.22;;;;;;;12.44;nan;93856.03;4933038;29;20485;-64
2022/10/24 08:33:38;;;;;;;7.70;2.13;;;;;;;12.37;nan;93848.72;4932733;29;20051;-66
2022/10/24 08:36:14;;;;;;;4.97;1.70;;;;;;;12.34;nan;93857.81;4932968;29;20047;-64
2022/10/24 08:38:41;;;;;;;8.10;2.33;;;;;;;12.26;nan;93845.44;4931920;29;20880;-64
2022/10/24 08:41:14;;;;;;;8.15;1.95;;;;;;;12.23;nan;93856.50;4939959;29;20052;-64
2022/10/24 08:43:41;;;;;;;6.82;1.67;;;;;;;12.22;nan;93830.97;4929662;29;20885;-66
2022/10/24 08:46:36;;;;;;;9.10;1.73;;;;;;;12.24;nan;93828.56;4932793;29;20075;-64
2022/10/24 08:49:31;;;;;;;6.55;2.17;;;;;;;12.30;nan;93831.59;4932146;29;20859;-64
2022/10/24 08:52:37;;;;;;;9.70;2.40;;;;;;;12.30;nan;93865.38;4902422;29;20864;-65
2022/10/24 08:55:18;;;;;;;8.18;2.97;;;;;;;12.31;nan;93877.16;4932216;29;20395;-64
2022/10/24 08:57:59;;;;;;;7.82;2.42;;;;;;;12.31;nan;93888.94;4931788;29;20675;-64
2022/10/24 09:00:33;;;;;;;10.55;2.45;;;;;;;12.32;nan;93890.50;4932101;29;20052;-64
2022/10/24 09:03:08;;;;;;;6.68;2.22;;;;;;;12.27;nan;93890.22;4932587;29;20044;-64
2022/10/24 09:05:41;;;;;;;5.70;2.20;;;;;;;12.19;nan;93882.13;4932254;29;20055;-64
2022/10/24 09:08:33;;;;;;;6.82;1.90;;;;;;;12.14;nan;93881.84;4932593;29;20052;-63
2022/10/24 09:11:02;;;;;;;7.68;2.10;;;;;;;12.12;nan;93868.53;4945352;28;20393;-65
2022/10/24 09:13:32;;;;;;;6.40;1.95;;;;;;;12.10;nan;93870.94;4932322;29;20051;-64
2022/10/24 09:16:00;;;;;;;9.45;2.63;;;;;;;12.19;nan;93881.34;4932455;29;20748;-65
2022/10/24 09:18:27;;;;;;;7.83;2.23;;;;;;;12.17;nan;93897.50;4931964;29;20519;-64
2022/10/24 09:20:54;;;;;;;6.85;2.10;;;;;;;12.19;nan;93903.34;4932358;29;20384;-64
2022/10/24 09:23:22;;;;;;;6.30;2.15;;;;;;;12.24;nan;93902.09;4932125;29;20083;-64
2022/10/24 09:25:53;;;;;;;9.18;2.17;;;;;;;12.20;nan;93896.66;4932715;29;20048;-64
2022/10/24 09:28:20;;;;;;;5.03;2.00;;;;;;;12.06;nan;93883.97;4932343;29;20556;-65
2022/10/24 09:30:48;;;;;;;5.37;1.70;;;;;;;12.01;nan;93869.94;4932432;29;20036;-64
2022/10/24 09:33:26;;;;;;;5.38;1.70;;;;;;;12.02;nan;93877.78;4932816;29;20062;-64
2022/10/24 09:35:56;;;;;;;7.25;2.00;;;;;;;11.96;nan;93891.25;4931484;29;20864;-64
2022/10/24 09:38:36;;;;;;;6.30;1.73;;;;;;;11.98;nan;93907.34;4932125;29;20066;-63
2022/10/24 09:41:12;;;;;;;5.40;1.83;;;;;;;12.02;nan;93945.78;4932270;29;20048;-64
2022/10/24 09:43:48;;;;;;;4.80;1.83;;;;;;;12.09;nan;93948.38;4931663;29;20046;-64
2022/10/24 09:46:20;;;;;;;5.18;1.90;;;;;;;12.08;nan;93946.84;4932459;29;20058;-65
2022/10/24 09:48:52;;;;;;;6.00;2.50;;;;;;;12.10;nan;93925.94;4931734;29;20230;-65
2022/10/24 09:51:32;;;;;;;4.95;1.95;;;;;;;12.06;nan;93922.50;4931789;29;20481;-63
2022/10/24 09:54:16;;;;;;;6.63;2.13;;;;;;;12.06;nan;93925.25;4932413;29;20050;-64
2022/10/24 09:56:54;;;;;;;6.57;2.00;;;;;;;12.03;nan;93920.59;4934745;29;20070;-63
2022/10/24 09:59:40;;;;;;;6.95;1.48;;;;;;;11.99;nan;93915.19;4935290;29;20044;-63
2022/10/24 10:02:11;;;;;;;7.13;1.77;;;;;;;12.02;nan;93915.53;4929408;29;20047;-62
2022/10/24 10:04:39;;;;;;;6.47;1.70;;;;;;;12.02;nan;93912.78;4939041;28;20048;-63
2022/10/24 10:07:26;;;;;;;7.30;1.95;;;;;;;12.06;nan;93913.47;4935321;29;20059;-62
2022/10/24 10:09:56;;;;;;;5.40;1.60;;;;;;;12.08;nan;93931.09;4944458;28;20871;-62
2022/10/24 10:12:31;;;;;;;7.00;2.30;;;;;;;12.20;nan;93943.44;4937691;28;20054;-64
2022/10/24 10:15:01;;;;;;;6.25;2.00;;;;;;;12.12;nan;93923.53;4935288;29;20066;-62
2022/10/24 10:17:31;;;;;;;5.53;1.75;;;;;;;11.99;nan;93922.63;4936973;29;20064;-63
2022/10/24 10:19:58;;;;;;;5.65;1.80;;;;;;;12.03;nan;93947.31;4922407;29;20058;-63
2022/10/24 10:22:30;;;;;;;4.40;1.70;;;;;;;12.07;nan;93945.28;4934879;29;20062;-64
2022/10/24 10:24:59;;;;;;;6.20;1.70;;;;;;;12.11;nan;93956.97;4934989;29;20054;-63
2022/10/24 10:27:39;;;;;;;4.53;1.83;;;;;;;12.16;nan;93948.22;4934520;29;20050;-64
2022/10/24 10:30:13;;;;;;;5.30;1.63;;;;;;;12.11;nan;93951.47;4935321;29;20043;-63
2022/10/24 10:32:49;;;;;;;4.60;1.70;;;;;;;12.10;nan;93955.44;4934882;29;20058;-63
2022/10/24 10:35:29;;;;;;;3.43;1.30;;;;;;;12.08;nan;93980.59;4921762;29;20051;-64
2022/10/24 10:38:01;;;;;;;4.65;1.42;;;;;;;12.10;nan;93991.19;4934715;29;20051;-63
2022/10/24 10:40:58;;;;;;;6.82;1.73;;;;;;;12.17;nan;93986.34;4934647;29;20497;-63
2022/10/24 10:43:36;;;;;;;3.75;1.42;;;;;;;12.09;nan;93989.63;4907069;29;20408;-62
2022/10/24 10:46:41;;;;;;;4.03;1.48;;;;;;;12.02;nan;93985.06;4934981;29;20052;-62
2022/10/24 10:49:14;;;;;;;3.30;1.40;;;;;;;12.06;nan;93990.50;4895047;29;21517;-63
2022/10/24 10:51:54;;;;;;;8.02;2.60;;;;;;;12.07;nan;93998.31;4934097;29;20618;-64
2022/10/24 10:54:45;;;;;;;5.95;1.65;;;;;;;12.01;nan;93994.50;4934005;29;20054;-64
2022/10/24 10:57:21;;;;;;;4.95;1.15;;;;;;;11.93;nan;93938.88;4934641;29;20489;-66
2022/10/24 11:00:23;;;;;;;5.22;1.60;;;;;;;11.89;nan;93916.19;4933727;29;20759;-63
2022/10/24 11:03:20;;;;;;;4.47;1.20;;;;;;;11.83;nan;93933.53;4923789;29;21636;-64
2022/10/24 11:06:02;;;;;;;3.92;1.80;;;;;;;11.91;nan;93963.28;4932413;29;20493;-63
2022/10/24 11:08:52;;;;;;;6.25;1.80;;;;;;;11.94;nan;93937.66;4940912;28;20400;-64
2022/10/24 11:11:27;;;;;;;4.07;1.30;;;;;;;11.88;nan;93944.06;4946780;28;20048;-64
2022/10/24 11:13:57;;;;;;;4.95;1.45;;;;;;;11.94;nan;93956.16;4934116;29;20047;-64
2022/10/24 11:16:27;;;;;;;3.30;1.20;;;;;;;12.02;nan;93952.06;4934026;29;20055;-63
2022/10/24 11:19:00;;;;;;;6.78;1.60;;;;;;;11.97;nan;93911.28;4934516;29;20489;-64
2022/10/24 11:21:31;;;;;;;4.95;2.13;;;;;;;11.85;nan;93832.16;4933735;29;20044;-63
2022/10/24 11:24:20;;;;;;;3.65;1.20;;;;;;;11.86;nan;93845.47;4934061;29;20040;-63
2022/10/24 11:26:56;;;;;;;5.47;1.20;;;;;;;11.85;nan;93808.19;4933471;29;20338;-65
2022/10/24 11:29:37;;;;;;;4.93;2.00;;;;;;;12.46;nan;93870.13;4933491;29;20043;-63
2022/10/24 11:32:17;;;;;;;4.05;1.40;;;;;;;12.66;nan;93856.28;4934055;29;20053;-65
2022/10/24 11:34:53;;;;;;;6.50;1.50;;;;;;;12.70;nan;93865.25;4933171;29;20078;-65
2022/10/24 11:37:27;;;;;;;4.10;1.65;;;;;;;13.05;nan;93853.75;4933392;29;20051;-65
2022/10/24 11:39:59;;;;;;;5.22;1.67;;;;;;;13.19;nan;93869.91;4933664;29;20515;-64
2022/10/24 11:42:36;;;;;;;4.70;2.10;;;;;;;12.96;nan;93868.16;4933270;29;20404;-65
2022/10/24 11:45:12;;;;;;;4.55;1.90;;;;;;;12.90;nan;93867.91;4933931;29;20485;-65
2022/10/24 11:47:48;;;;;;;6.60;1.50;;;;;;;12.65;nan;93860.22;4933522;29;20051;-64
2022/10/24 11:50:27;;;;;;;3.78;1.50;;;;;;;12.84;nan;93868.81;4933606;29;20048;-64
2022/10/24 11:53:01;;;;;;;5.18;1.67;;;;;;;12.88;nan;93867.56;4932315;29;21575;-64
2022/10/24 11:55:37;;;;;;;10.97;5.10;;;;;;;12.98;nan;93865.75;4933181;29;20058;-63
2022/10/24 11:58:11;;;;;;;9.95;2.90;;;;;;;12.96;nan;93866.16;4926389;29;20062;-63
2022/10/24 12:00:50;;;;;;;5.60;2.10;;;;;;;12.95;nan;93870.13;4928370;28;21311;-64
2022/10/24 12:03:46;;;;;;;5.55;2.00;;;;;;;13.19;nan;93867.16;4932068;29;20416;-63
2022/10/24 12:06:51;;;;;;;4.72;1.80;;;;;;;13.39;nan;93884.38;4883744;29;20043;-65
2022/10/24 12:09:57;;;;;;;3.60;1.03;;;;;;;13.32;nan;93867.25;4911674;29;20921;-64